Time;durP1;ratioP1;P1;durP2;ratioP2;P2;SDS_P1;SDS_P2;PMS_P1;PMS_P2;Temp;Humidity;BMP_temperature;BMP_pressure;BME280_temperature;BME280_humidity;BME280_pressure;Samples;Min_cycle;Max_cycle;Signal;HPM_P1;HPM_P2
2022/10/01 00:00:50;;;;;;;7.13;6.40;;;;;;;17.52;81.86;95288.78;5112642;28;20810;-79
2022/10/01 00:03:19;;;;;;;9.93;6.90;;;;;;;17.45;81.84;95279.81;5112367;28;20443;-79
2022/10/01 00:05:47;;;;;;;7.53;6.83;;;;;;;17.45;82.05;95274.53;5112309;28;20434;-80
2022/10/01 00:08:15;;;;;;;7.87;6.53;;;;;;;17.38;81.67;95268.22;5112927;28;20450;-79
2022/10/01 00:10:42;;;;;;;8.13;7.27;;;;;;;17.21;82.77;95270.81;5112492;28;20532;-79
2022/10/01 00:13:09;;;;;;;6.50;5.90;;;;;;;17.23;82.45;95271.47;5112547;28;20455;-79
2022/10/01 00:15:39;;;;;;;7.87;7.10;;;;;;;17.26;82.49;95263.19;5112504;28;20450;-79
2022/10/01 00:18:07;;;;;;;7.10;6.50;;;;;;;17.27;82.33;95259.53;5112468;28;20837;-80
2022/10/01 00:20:35;;;;;;;11.77;6.50;;;;;;;17.27;82.79;95259.53;5112566;28;20495;-78
2022/10/01 00:23:02;;;;;;;6.83;6.17;;;;;;;17.30;82.41;95261.03;5112489;28;20459;-79
2022/10/01 00:25:29;;;;;;;11.47;6.37;;;;;;;17.32;82.54;95262.53;5112786;28;20447;-79
2022/10/01 00:27:56;;;;;;;7.07;6.47;;;;;;;17.34;82.43;95260.56;5077334;28;20439;-80
2022/10/01 00:30:23;;;;;;;9.33;6.77;;;;;;;17.29;83.05;95248.78;5116442;28;20467;-80
2022/10/01 00:32:53;;;;;;;8.23;6.97;;;;;;;17.25;82.87;95250.91;5116453;28;20443;-78
2022/10/01 00:35:21;;;;;;;8.37;5.83;;;;;;;17.19;83.19;95253.41;5116560;28;20431;-79
2022/10/01 00:37:51;;;;;;;7.40;6.60;;;;;;;17.20;83.36;95261.19;5116149;28;20482;-80
2022/10/01 00:40:20;;;;;;;8.63;6.67;;;;;;;17.21;83.13;95260.19;5116206;28;20437;-79
2022/10/01 00:42:47;;;;;;;9.97;7.07;;;;;;;17.20;83.08;95261.19;5116547;28;20431;-79
2022/10/01 00:45:15;;;;;;;7.43;6.70;;;;;;;17.24;82.83;95264.34;5116478;28;20454;-79
2022/10/01 00:47:49;;;;;;;7.63;7.03;;;;;;;17.22;82.82;95261.03;5116294;28;20446;-79
2022/10/01 00:50:20;;;;;;;8.50;6.03;;;;;;;17.26;82.80;95263.19;5116069;28;20450;-78
2022/10/01 00:52:53;;;;;;;7.27;6.50;;;;;;;17.22;82.87;95253.91;5115840;28;20459;-78
2022/10/01 00:55:23;;;;;;;9.87;7.60;;;;;;;17.22;82.73;95269.81;5116263;28;20439;-78
2022/10/01 00:57:50;;;;;;;8.00;7.30;;;;;;;17.15;83.30;95255.53;5115948;28;20514;-78
2022/10/01 01:00:18;;;;;;;9.57;7.63;;;;;;;17.21;83.61;95260.19;5115687;28;20439;-79
2022/10/01 01:02:45;;;;;;;7.50;6.63;;;;;;;17.10;83.57;95272.94;5115738;28;20451;-80
2022/10/01 01:05:12;;;;;;;8.37;7.57;;;;;;;16.99;84.83;95260.78;5079900;28;20445;-79
2022/10/01 01:07:44;;;;;;;7.10;6.50;;;;;;;16.55;86.41;95257.41;5115738;28;20451;-78
2022/10/01 01:10:13;;;;;;;13.33;7.60;;;;;;;16.62;86.48;95274.34;5116519;28;20500;-79
2022/10/01 01:13:06;;;;;;;8.07;7.27;;;;;;;16.64;86.21;95262.59;5115722;28;20462;-79
2022/10/01 01:15:41;;;;;;;8.60;6.67;;;;;;;16.46;86.61;95245.91;5072484;28;20456;-79
2022/10/01 01:18:13;;;;;;;9.20;8.20;;;;;;;16.34;87.08;95253.31;5072495;28;20491;-79
2022/10/01 01:20:56;;;;;;;10.20;8.23;;;;;;;16.45;87.04;95265.44;5072508;28;20449;-78
2022/10/01 01:23:42;;;;;;;9.87;7.03;;;;;;;16.43;87.32;95248.88;5072691;28;20447;-78
2022/10/01 01:26:21;;;;;;;9.23;7.67;;;;;;;16.47;87.03;95242.28;5023131;28;20501;-78
2022/10/01 01:28:54;;;;;;;7.50;6.80;;;;;;;16.32;87.47;95236.75;5072664;28;20440;-78
2022/10/01 01:31:26;;;;;;;7.50;6.80;;;;;;;16.43;87.16;95243.59;5072493;28;20475;-79
2022/10/01 01:33:56;;;;;;;7.97;7.17;;;;;;;16.46;87.78;95235.31;5072448;28;20526;-79
2022/10/01 01:36:29;;;;;;;8.20;6.63;;;;;;;16.49;87.78;95235.03;5072359;28;20968;-79
2022/10/01 01:38:59;;;;;;;9.57;8.03;;;;;;;16.43;88.07;95246.25;5072259;28;20849;-78
2022/10/01 01:41:29;;;;;;;13.10;6.93;;;;;;;16.46;87.78;95239.78;5071457;28;20448;-79
2022/10/01 01:44:01;;;;;;;8.60;7.70;;;;;;;16.43;87.84;95231.19;5072367;28;20452;-79
2022/10/01 01:46:32;;;;;;;9.10;8.23;;;;;;;16.46;87.70;95242.44;5072043;28;20437;-79
2022/10/01 01:49:03;;;;;;;9.40;7.03;;;;;;;16.40;88.05;95254.50;5072199;28;20545;-79
2022/10/01 01:51:35;;;;;;;7.37;6.60;;;;;;;16.39;88.15;95247.53;5073656;28;20822;-78
2022/10/01 01:54:02;;;;;;;7.70;6.73;;;;;;;16.36;88.33;95247.84;5114728;28;20809;-78
2022/10/01 01:56:31;;;;;;;8.07;7.33;;;;;;;16.35;87.96;95265.56;5114653;28;20450;-79
2022/10/01 01:59:00;;;;;;;7.10;6.50;;;;;;;16.36;88.73;95258.44;5114767;28;20475;-78
2022/10/01 02:01:32;;;;;;;8.27;7.50;;;;;;;16.37;88.14;95254.81;5115146;28;20481;-79
2022/10/01 02:04:00;;;;;;;11.83;7.57;;;;;;;16.40;88.11;95250.03;5114533;28;20567;-78
2022/10/01 02:06:34;;;;;;;10.60;6.90;;;;;;;16.41;88.16;95261.47;5114592;28;20781;-78
2022/10/01 02:09:06;;;;;;;7.70;6.63;;;;;;;16.40;88.19;95265.94;5114752;28;20442;-78
2022/10/01 02:11:40;;;;;;;12.13;8.20;;;;;;;16.34;88.22;95265.72;5114449;28;20935;-79
2022/10/01 02:14:20;;;;;;;11.93;6.77;;;;;;;16.38;88.42;95280.31;5114699;28;20440;-79
2022/10/01 02:16:50;;;;;;;10.13;7.03;;;;;;;16.32;88.71;95278.28;5078191;28;20470;-78
2022/10/01 02:19:27;;;;;;;8.57;7.80;;;;;;;16.32;88.47;95275.66;5114575;28;20483;-79
2022/10/01 02:21:59;;;;;;;7.67;7.07;;;;;;;16.32;88.06;95287.06;5114052;28;20450;-79
2022/10/01 02:24:36;;;;;;;7.93;7.23;;;;;;;16.21;88.73;95279.41;5114390;28;20821;-79
2022/10/01 02:27:08;;;;;;;8.07;7.10;;;;;;;16.27;88.14;95296.47;5114092;28;20443;-78
2022/10/01 02:29:37;;;;;;;11.43;7.87;;;;;;;15.54;91.59;95282.56;5114264;28;20450;-79
2022/10/01 02:32:04;;;;;;;11.90;9.37;;;;;;;15.72;91.26;95289.56;5114023;28;20979;-78
2022/10/01 02:34:32;;;;;;;11.27;9.87;;;;;;;15.74;91.82;95295.53;5114272;28;20434;-79
2022/10/01 02:37:04;;;;;;;12.80;9.20;;;;;;;15.68;91.86;95277.63;5113737;28;20447;-78
2022/10/01 02:39:34;;;;;;;18.27;9.37;;;;;;;15.76;92.30;95271.59;5113813;28;20951;-79
2022/10/01 02:42:02;;;;;;;14.87;9.40;;;;;;;15.80;92.93;95273.75;5114249;28;20449;-79
2022/10/01 02:44:36;;;;;;;11.70;8.40;;;;;;;15.88;93.36;95274.81;5113770;28;20427;-78
2022/10/01 02:47:09;;;;;;;9.97;8.73;;;;;;;15.95;93.28;95281.19;5113605;28;20451;-79
2022/10/01 02:49:38;;;;;;;10.20;9.10;;;;;;;16.00;92.80;95285.03;5113969;28;20435;-79
2022/10/01 02:52:11;;;;;;;12.93;8.10;;;;;;;16.05;93.25;95290.69;5113569;28;20464;-79
2022/10/01 02:54:44;;;;;;;9.07;8.17;;;;;;;16.11;92.73;95299.81;5114139;28;20435;-79
2022/10/01 02:57:26;;;;;;;14.87;9.00;;;;;;;16.17;93.29;95311.59;5113516;28;20443;-78
2022/10/01 02:59:56;;;;;;;11.67;8.10;;;;;;;16.24;92.47;95307.38;5113718;28;20479;-79
2022/10/01 03:02:26;;;;;;;10.00;8.40;;;;;;;16.25;92.32;95303.75;5113774;28;20537;-79
2022/10/01 03:04:53;;;;;;;11.70;8.80;;;;;;;15.95;93.21;95292.59;5113734;28;20982;-78
2022/10/01 03:07:20;;;;;;;13.70;8.70;;;;;;;16.02;93.18;95298.94;5113388;28;20435;-79
2022/10/01 03:09:48;;;;;;;11.30;8.80;;;;;;;16.10;93.24;95306.94;5113464;28;20439;-79
2022/10/01 03:12:15;;;;;;;12.33;8.77;;;;;;;16.15;93.38;95314.41;5113405;28;20871;-78
2022/10/01 03:14:42;;;;;;;11.90;9.13;;;;;;;16.22;93.66;95322.59;5113296;28;20435;-79
2022/10/01 03:17:10;;;;;;;8.60;7.63;;;;;;;16.27;93.35;95315.00;5113085;28;20478;-79
2022/10/01 03:19:39;;;;;;;9.60;7.63;;;;;;;16.33;93.33;95317.03;5113609;28;20486;-78
2022/10/01 03:22:07;;;;;;;20.73;10.70;;;;;;;16.32;93.04;95305.63;5113436;28;20439;-79
2022/10/01 03:24:34;;;;;;;12.53;8.60;;;;;;;16.22;93.59;95310.19;5113233;28;20435;-78
2022/10/01 03:27:01;;;;;;;11.53;8.80;;;;;;;16.12;93.35;95301.47;5113146;28;20438;-79
2022/10/01 03:29:28;;;;;;;12.00;8.77;;;;;;;16.02;93.78;95303.41;5113206;28;20933;-78
2022/10/01 03:31:55;;;;;;;13.17;8.27;;;;;;;16.05;93.30;95309.22;5113347;28;20439;-78
2022/10/01 03:34:23;;;;;;;10.00;8.90;;;;;;;16.01;93.84;95307.84;5113164;28;20438;-79
2022/10/01 03:36:51;;;;;;;13.67;9.00;;;;;;;15.90;94.64;95321.34;5113386;28;20446;-78
2022/10/01 03:39:18;;;;;;;16.17;8.00;;;;;;;15.98;94.59;95324.06;5113188;28;20502;-79
2022/10/01 03:41:45;;;;;;;12.00;9.43;;;;;;;15.92;94.83;95322.00;5113252;28;20435;-78
2022/10/01 03:44:12;;;;;;;10.47;8.60;;;;;;;15.95;94.88;95318.22;5112855;28;20945;-79
2022/10/01 03:46:39;;;;;;;10.90;8.30;;;;;;;15.71;96.40;95301.16;5112816;28;20454;-78
2022/10/01 03:49:06;;;;;;;11.40;9.73;;;;;;;15.70;96.84;95306.59;5112871;28;20430;-79
2022/10/01 03:51:34;;;;;;;10.63;8.90;;;;;;;15.61;96.51;95291.59;5113216;28;20442;-77
2022/10/01 03:54:04;;;;;;;10.97;8.70;;;;;;;15.65;96.66;95301.75;5113197;28;20478;-78
2022/10/01 03:56:31;;;;;;;13.10;9.53;;;;;;;15.66;96.70;95299.94;5112828;28;20446;-79
2022/10/01 03:58:57;;;;;;;11.90;8.90;;;;;;;15.66;97.24;95310.53;5113087;28;20484;-80
2022/10/01 04:01:24;;;;;;;11.17;8.80;;;;;;;15.67;97.28;95309.53;5111668;28;20987;-79
2022/10/01 04:03:51;;;;;;;11.87;8.57;;;;;;;15.68;97.33;95304.09;5114654;28;20538;-79
2022/10/01 04:06:19;;;;;;;15.13;9.50;;;;;;;15.71;97.43;95295.03;5079431;28;20944;-79
2022/10/01 04:08:46;;;;;;;24.10;10.60;;;;;;;15.45;97.95;95281.69;5116733;28;20438;-79
2022/10/01 04:11:14;;;;;;;19.43;10.67;;;;;;;15.50;97.52;95277.59;5116510;28;20949;-78
2022/10/01 04:13:41;;;;;;;12.10;9.77;;;;;;;15.40;98.47;95273.38;5116958;28;20461;-79
2022/10/01 04:16:08;;;;;;;19.77;9.27;;;;;;;15.47;98.29;95293.75;5116509;28;20464;-78
2022/10/01 04:18:35;;;;;;;12.77;9.43;;;;;;;15.44;98.17;95275.56;5116950;28;20459;-79
2022/10/01 04:21:02;;;;;;;14.40;9.80;;;;;;;15.50;98.27;95280.25;5116524;28;20452;-79
2022/10/01 04:23:29;;;;;;;19.57;9.90;;;;;;;15.57;98.73;95282.28;5116560;28;20464;-79
2022/10/01 04:25:59;;;;;;;11.33;9.23;;;;;;;15.62;98.62;95286.19;5116627;28;20840;-78
2022/10/01 04:28:27;;;;;;;10.97;9.87;;;;;;;15.68;98.57;95287.38;5116764;28;20487;-78
2022/10/01 04:31:23;;;;;;;18.43;10.47;;;;;;;15.67;98.08;95285.72;5116560;28;20449;-78
2022/10/01 04:33:42;;;;;;;12.03;9.73;;;;;;;15.63;97.59;95271.97;5116342;28;20431;-78
2022/10/01 04:36:09;;;;;;;16.47;10.47;;;;;;;15.71;97.93;95287.09;5116452;28;20457;-79
2022/10/01 04:38:36;;;;;;;12.43;9.70;;;;;;;15.74;97.82;95284.13;5116102;28;20450;-79
2022/10/01 04:41:03;;;;;;;14.83;10.43;;;;;;;15.77;97.35;95274.06;5116078;28;20984;-79
2022/10/01 04:43:31;;;;;;;15.03;11.77;;;;;;;15.82;97.41;95267.47;5080550;28;20443;-79
2022/10/01 04:45:58;;;;;;;13.10;10.27;;;;;;;15.87;96.74;95273.97;5116284;28;20458;-78
2022/10/01 04:48:24;;;;;;;18.80;11.03;;;;;;;15.94;97.26;95290.09;5116027;28;20793;-78
2022/10/01 04:50:51;;;;;;;13.93;10.23;;;;;;;15.94;96.09;95285.63;5116255;28;20928;-79
2022/10/01 04:53:18;;;;;;;16.70;10.73;;;;;;;16.07;96.08;95299.28;5114762;28;20456;-79
2022/10/01 04:55:45;;;;;;;14.43;10.70;;;;;;;16.15;96.33;95297.69;5114945;28;20442;-79
2022/10/01 04:58:12;;;;;;;11.13;9.70;;;;;;;16.30;95.28;95318.19;5115836;28;20484;-79
2022/10/01 05:00:40;;;;;;;22.33;9.93;;;;;;;16.39;94.17;95319.06;5115786;28;20481;-79
2022/10/01 05:03:07;;;;;;;13.00;9.10;;;;;;;16.46;92.71;95319.25;5116083;28;20849;-79
2022/10/01 05:05:34;;;;;;;10.20;9.17;;;;;;;16.51;91.76;95325.78;5116170;28;20450;-79
2022/10/01 05:08:01;;;;;;;9.60;7.87;;;;;;;16.57;90.69;95311.06;5115978;28;20442;-79
2022/10/01 05:10:28;;;;;;;8.80;8.00;;;;;;;16.58;89.77;95296.84;5116047;28;20454;-78
2022/10/01 05:12:55;;;;;;;8.90;7.50;;;;;;;16.72;89.43;95310.34;5115681;28;20439;-78
2022/10/01 05:15:22;;;;;;;12.67;8.40;;;;;;;16.79;89.71;95328.31;5114524;28;20447;-79
2022/10/01 05:17:50;;;;;;;9.10;8.20;;;;;;;16.88;89.01;95328.19;5115596;28;20482;-79
2022/10/01 05:20:19;;;;;;;9.43;8.63;;;;;;;17.18;88.78;95334.78;5115538;28;20505;-79
2022/10/01 05:22:47;;;;;;;14.37;7.60;;;;;;;17.46;84.59;95338.03;5115374;28;20426;-78
2022/10/01 05:25:15;;;;;;;7.87;7.03;;;;;;;17.53;84.32;95348.81;5115490;28;20443;-79
2022/10/01 05:27:42;;;;;;;12.80;9.07;;;;;;;17.44;85.12;95350.63;5115888;28;20447;-79
2022/10/01 05:30:10;;;;;;;17.23;8.43;;;;;;;17.62;86.31;95343.38;5115868;27;20443;-80
2022/10/01 05:32:38;;;;;;;9.70;8.70;;;;;;;17.62;83.89;95346.03;5115735;27;20455;-79
2022/10/01 05:35:07;;;;;;;8.50;7.60;;;;;;;17.69;83.79;95343.59;5115277;28;20921;-79
2022/10/01 05:37:34;;;;;;;8.80;7.90;;;;;;;17.71;83.61;95351.41;5079821;28;20454;-78
2022/10/01 05:40:02;;;;;;;10.77;8.30;;;;;;;17.72;84.21;95339.78;5114965;28;20852;-78
2022/10/01 05:42:28;;;;;;;16.33;9.77;;;;;;;17.76;83.24;95357.88;5115128;28;21010;-79
2022/10/01 05:44:55;;;;;;;12.00;8.40;;;;;;;17.83;83.59;95361.53;5114993;28;20451;-78
2022/10/01 05:47:22;;;;;;;11.50;9.33;;;;;;;17.76;84.48;95359.72;5114789;28;20875;-80
2022/10/01 05:49:49;;;;;;;15.73;10.03;;;;;;;17.69;84.48;95359.53;5115125;28;20503;-79
2022/10/01 05:52:17;;;;;;;12.23;8.90;;;;;;;17.67;84.67;95336.78;5115297;28;20447;-78
2022/10/01 05:54:44;;;;;;;12.87;8.73;;;;;;;17.28;86.32;95321.38;5115062;28;20948;-79
2022/10/01 05:57:11;;;;;;;12.80;10.70;;;;;;;16.83;91.32;95289.88;5114867;28;20447;-79
2022/10/01 05:59:39;;;;;;;13.30;10.37;;;;;;;17.06;92.28;95309.56;5114668;28;20479;-78
2022/10/01 06:02:05;;;;;;;13.53;10.30;;;;;;;17.42;92.58;95317.28;5115538;28;20461;-78
2022/10/01 06:04:32;;;;;;;16.97;9.97;;;;;;;17.34;91.41;95334.00;5114944;28;20448;-79
2022/10/01 06:06:59;;;;;;;21.70;11.07;;;;;;;17.39;90.70;95338.84;5114755;28;20441;-79
2022/10/01 06:09:27;;;;;;;12.27;10.63;;;;;;;17.44;91.13;95365.72;5115111;28;20434;-79
2022/10/01 06:11:54;;;;;;;27.83;10.23;;;;;;;17.54;91.09;95366.41;5114366;28;20447;-79
2022/10/01 06:14:21;;;;;;;14.50;8.40;;;;;;;17.57;90.54;95355.47;5114858;28;20450;-78
2022/10/01 06:16:52;;;;;;;18.17;9.57;;;;;;;17.75;90.32;95321.72;5114380;28;21015;-79
2022/10/01 06:19:19;;;;;;;13.03;9.20;;;;;;;18.03;89.61;95353.28;5114568;28;20474;-79
2022/10/01 06:21:46;;;;;;;15.50;8.87;;;;;;;18.07;88.67;95357.28;5078651;28;20806;-79
2022/10/01 06:24:13;;;;;;;17.10;10.40;;;;;;;18.18;88.54;95352.44;5114313;28;20490;-78
2022/10/01 06:26:42;;;;;;;13.77;8.83;;;;;;;18.39;87.51;95378.53;5113886;28;20454;-79
2022/10/01 06:29:10;;;;;;;18.10;10.53;;;;;;;18.64;87.46;95378.56;5114387;28;20427;-80
2022/10/01 06:31:37;;;;;;;19.43;10.60;;;;;;;19.06;85.08;95370.34;5114289;28;20439;-79
2022/10/01 06:34:04;;;;;;;14.07;11.47;;;;;;;19.39;83.32;95365.78;5114420;28;20504;-80
2022/10/01 06:36:30;;;;;;;13.40;9.80;;;;;;;19.91;80.18;95375.84;5114013;28;20436;-79
2022/10/01 06:38:58;;;;;;;14.57;10.53;;;;;;;20.21;77.61;95374.97;5114309;28;20462;-79
2022/10/01 06:41:24;;;;;;;13.93;9.87;;;;;;;20.58;75.39;95390.25;5114024;28;20564;-79
2022/10/01 06:43:53;;;;;;;13.90;10.33;;;;;;;20.94;72.95;95394.94;5113611;28;20466;-79
2022/10/01 06:46:19;;;;;;;19.10;10.87;;;;;;;21.08;71.91;95380.75;5113894;28;20431;-79
2022/10/01 06:48:46;;;;;;;18.70;11.13;;;;;;;21.08;71.17;95395.94;5113967;28;20454;-78
2022/10/01 06:51:13;;;;;;;12.53;10.13;;;;;;;21.44;70.61;95386.25;5113570;28;20945;-79
2022/10/01 06:53:40;;;;;;;14.53;10.37;;;;;;;21.46;69.74;95356.72;5113774;28;20492;-79
2022/10/01 06:56:08;;;;;;;18.97;10.23;;;;;;;21.45;69.75;95339.84;5113692;27;20451;-79
2022/10/01 06:58:36;;;;;;;16.73;9.80;;;;;;;21.62;68.81;95349.31;5113576;28;20443;-79
2022/10/01 07:01:04;;;;;;;19.63;9.33;;;;;;;21.62;68.68;95362.66;5113198;28;20478;-78
2022/10/01 07:03:31;;;;;;;11.20;8.97;;;;;;;21.71;68.33;95371.41;5078141;28;20534;-78
2022/10/01 07:06:02;;;;;;;12.97;9.20;;;;;;;21.53;67.41;95368.28;5113907;27;20461;-79
2022/10/01 07:08:29;;;;;;;13.70;10.43;;;;;;;21.49;67.68;95381.19;5113762;28;20945;-78
2022/10/01 07:11:02;;;;;;;23.57;9.90;;;;;;;21.53;67.65;95384.31;5113131;28;20808;-79
2022/10/01 07:13:29;;;;;;;11.90;8.90;;;;;;;21.65;67.96;95409.53;5113267;28;20479;-79
2022/10/01 07:15:55;;;;;;;17.50;10.50;;;;;;;21.89;67.49;95419.09;5094294;28;20446;-80
2022/10/01 07:18:24;;;;;;;21.13;10.30;;;;;;;22.13;66.46;95421.47;5113878;28;20438;-79
2022/10/01 07:20:51;;;;;;;15.60;10.30;;;;;;;22.09;65.48;95412.19;5113283;28;20482;-79
2022/10/01 07:23:18;;;;;;;12.20;8.77;;;;;;;22.32;65.43;95420.06;5113017;28;20508;-79
2022/10/01 07:25:47;;;;;;;10.07;9.00;;;;;;;21.94;65.37;95414.00;5113294;28;20442;-78
2022/10/01 07:28:16;;;;;;;15.30;9.20;;;;;;;22.16;66.20;95405.06;5113183;28;20482;-79
2022/10/01 07:30:46;;;;;;;13.30;8.30;;;;;;;22.30;64.18;95381.97;5113017;28;20435;-79
2022/10/01 07:33:14;;;;;;;12.40;7.90;;;;;;;22.46;63.80;95387.06;5112876;28;20426;-79
2022/10/01 07:35:42;;;;;;;10.83;7.80;;;;;;;22.74;63.05;95383.59;5112772;28;20450;-79
2022/10/01 07:38:09;;;;;;;12.30;8.30;;;;;;;22.98;62.01;95385.06;5112470;28;20446;-79
2022/10/01 07:40:36;;;;;;;16.93;7.90;;;;;;;23.25;61.31;95365.50;5112862;28;20482;-79
2022/10/01 07:43:04;;;;;;;13.60;8.70;;;;;;;23.42;59.25;95377.56;5112864;28;20447;-78
2022/10/01 07:45:31;;;;;;;10.17;7.70;;;;;;;23.23;58.63;95382.78;5112895;28;20806;-79
2022/10/01 07:48:00;;;;;;;17.43;7.43;;;;;;;23.54;59.16;95368.94;5112598;28;20941;-79
2022/10/01 07:50:29;;;;;;;7.37;6.73;;;;;;;23.81;59.19;95389.53;5112725;28;20450;-78
2022/10/01 07:52:59;;;;;;;12.47;6.97;;;;;;;24.10;57.59;95397.28;5112949;28;20450;-79
2022/10/01 07:55:29;;;;;;;8.90;6.97;;;;;;;24.27;56.62;95386.16;5112730;28;20804;-79
2022/10/01 07:57:58;;;;;;;12.60;6.60;;;;;;;24.25;55.86;95378.31;5112800;28;20464;-78
2022/10/01 08:00:27;;;;;;;13.40;6.80;;;;;;;23.87;56.50;95347.69;5112950;28;20479;-80
2022/10/01 08:02:55;;;;;;;7.30;6.67;;;;;;;23.53;58.01;95365.44;5112770;28;20455;-78
2022/10/01 08:05:24;;;;;;;12.57;7.70;;;;;;;23.44;58.14;95359.44;5076593;28;20463;-79
2022/10/01 08:07:52;;;;;;;8.40;7.43;;;;;;;22.99;59.60;95368.00;5077057;28;20450;-78
2022/10/01 08:10:22;;;;;;;10.20;8.40;;;;;;;22.64;61.92;95359.03;5113531;28;20538;-79
2022/10/01 08:12:49;;;;;;;8.83;6.97;;;;;;;21.83;65.27;95337.00;5112735;28;20926;-79
2022/10/01 08:15:17;;;;;;;16.83;7.80;;;;;;;21.67;66.25;95334.56;5112839;28;20518;-79
2022/10/01 08:17:45;;;;;;;8.27;6.53;;;;;;;21.25;67.08;95328.09;5112672;28;20466;-79
2022/10/01 08:20:14;;;;;;;12.47;6.87;;;;;;;21.14;67.43;95325.84;5112435;28;20467;-79
2022/10/01 08:22:41;;;;;;;12.60;7.40;;;;;;;20.59;70.47;95308.41;5112765;28;20435;-80
2022/10/01 08:25:08;;;;;;;18.03;9.03;;;;;;;20.45;71.98;95287.88;5112580;28;20976;-78
2022/10/01 08:27:37;;;;;;;10.23;7.80;;;;;;;20.23;73.13;95297.53;5112522;28;20456;-79
2022/10/01 08:30:05;;;;;;;9.07;6.93;;;;;;;20.44;73.84;95323.53;5112862;28;20458;-78
2022/10/01 08:32:32;;;;;;;11.17;7.70;;;;;;;20.51;73.60;95319.97;5112509;28;20450;-78
2022/10/01 08:35:00;;;;;;;18.07;7.87;;;;;;;20.57;75.21;95291.78;5112684;28;20454;-79
2022/10/01 08:37:28;;;;;;;13.67;8.20;;;;;;;20.52;73.71;95296.78;5112748;28;20929;-79
2022/10/01 08:39:55;;;;;;;11.10;8.00;;;;;;;20.57;74.80;95294.44;5112248;28;20443;-78
2022/10/01 08:42:40;;;;;;;12.80;8.07;;;;;;;20.64;74.22;95298.03;5112293;28;20443;-78
2022/10/01 08:45:14;;;;;;;16.83;10.43;;;;;;;20.56;73.63;95292.78;5112294;28;20449;-80
2022/10/01 08:47:44;;;;;;;15.93;8.70;;;;;;;20.47;73.90;95291.19;5112361;28;20953;-78
2022/10/01 08:50:18;;;;;;;10.40;8.67;;;;;;;20.33;74.23;95276.78;5114785;28;20451;-81
2022/10/01 08:52:52;;;;;;;17.50;8.73;;;;;;;20.36;74.78;95279.94;5116095;28;20474;-78
2022/10/01 08:55:23;;;;;;;12.83;7.63;;;;;;;20.24;75.84;95265.38;5115822;28;20792;-78
2022/10/01 08:57:56;;;;;;;13.37;8.00;;;;;;;20.15;76.89;95265.63;5080851;28;20798;-78
2022/10/01 09:00:23;;;;;;;9.70;7.90;;;;;;;20.20;76.73;95290.72;5116090;28;20482;-79
2022/10/01 09:02:51;;;;;;;14.97;8.43;;;;;;;20.16;77.41;95262.78;5116040;28;20435;-79
2022/10/01 09:05:23;;;;;;;19.33;8.50;;;;;;;20.11;77.63;95291.78;5115791;28;20508;-77
2022/10/01 09:08:00;;;;;;;13.80;8.60;;;;;;;20.00;76.68;95295.72;5115536;27;20486;-79
2022/10/01 09:10:39;;;;;;;13.07;8.43;;;;;;;19.98;77.38;95342.19;5115700;28;20813;-80
2022/10/01 09:13:40;;;;;;;14.40;10.10;;;;;;;20.04;78.14;95354.81;5116297;28;20439;-79
2022/10/01 09:16:17;;;;;;;14.17;8.47;;;;;;;20.04;78.31;95357.47;5115246;28;20947;-78
2022/10/01 09:18:55;;;;;;;14.90;8.40;;;;;;;20.02;77.56;95359.47;5115701;28;20453;-79
2022/10/01 09:21:28;;;;;;;11.00;8.83;;;;;;;20.05;77.84;95362.63;5115460;28;20482;-79
2022/10/01 09:24:04;;;;;;;12.10;8.87;;;;;;;20.07;77.80;95407.72;5115302;28;20439;-78
2022/10/01 09:26:31;;;;;;;13.20;9.17;;;;;;;20.13;77.80;95412.34;5115155;28;20943;-78
2022/10/01 09:29:02;;;;;;;20.23;8.70;;;;;;;20.19;78.25;95406.31;5115553;28;20461;-80
2022/10/01 09:31:35;;;;;;;22.90;9.67;;;;;;;20.20;78.18;95407.13;5115508;28;20849;-78
2022/10/01 09:34:09;;;;;;;19.97;9.40;;;;;;;20.24;78.57;95427.97;5115236;28;20462;-79
2022/10/01 09:36:41;;;;;;;10.60;9.37;;;;;;;20.25;77.43;95426.94;5115151;28;20893;-79
2022/10/01 09:39:19;;;;;;;22.00;9.07;;;;;;;20.10;79.65;95415.38;5115302;28;20486;-78
2022/10/01 09:41:47;;;;;;;14.80;9.23;;;;;;;20.15;79.96;95414.84;5114996;28;20485;-79
2022/10/01 09:44:18;;;;;;;14.40;9.10;;;;;;;19.92;81.58;95396.97;5115164;27;20435;-77
2022/10/01 09:46:46;;;;;;;19.23;11.40;;;;;;;19.87;81.86;95412.66;5115128;28;20450;-79
2022/10/01 09:49:26;;;;;;;22.60;11.23;;;;;;;19.96;82.85;95400.16;5115007;28;20447;-79
2022/10/01 09:52:01;;;;;;;21.33;9.97;;;;;;;20.03;83.49;95409.09;5114828;28;20443;-78
2022/10/01 09:54:34;;;;;;;16.63;11.10;;;;;;;20.05;83.78;95415.06;5115014;28;20948;-79
2022/10/01 09:57:07;;;;;;;18.10;11.57;;;;;;;20.06;83.78;95382.09;5115231;28;20455;-78
2022/10/01 09:59:40;;;;;;;10.90;9.50;;;;;;;19.37;84.54;95352.63;5114989;28;20443;-79
2022/10/01 10:02:16;;;;;;;8.53;5.47;;;;;;;19.66;83.74;95346.72;5113991;28;20482;-79
2022/10/01 10:04:43;;;;;;;4.40;3.30;;;;;;;19.99;82.55;95338.53;5114736;28;20438;-79
2022/10/01 10:07:18;;;;;;;6.80;3.33;;;;;;;20.19;81.66;95330.88;5114358;28;20450;-79
2022/10/01 10:09:45;;;;;;;5.20;3.80;;;;;;;20.40;80.00;95326.56;5114301;28;20901;-79
2022/10/01 10:12:29;;;;;;;4.80;3.57;;;;;;;20.59;78.10;95335.09;5114803;28;20477;-80
2022/10/01 10:15:06;;;;;;;5.60;5.10;;;;;;;20.66;79.20;95339.50;5114182;28;20486;-79
2022/10/01 10:17:36;;;;;;;7.40;3.50;;;;;;;20.70;79.92;95339.97;5113966;28;21023;-79
2022/10/01 10:20:13;;;;;;;7.47;4.50;;;;;;;20.74;81.19;95319.91;5114148;28;20956;-79
2022/10/01 10:22:40;;;;;;;4.13;3.80;;;;;;;20.83;82.70;95366.88;5114350;28;20442;-80
2022/10/01 10:25:16;;;;;;;6.30;5.70;;;;;;;20.89;81.26;95373.31;5078353;28;20450;-79
2022/10/01 10:27:54;;;;;;;7.77;5.17;;;;;;;20.72;80.53;95345.94;5114761;28;20443;-79
2022/10/01 10:30:25;;;;;;;9.10;5.30;;;;;;;20.83;81.76;95361.53;5113831;28;20439;-79
2022/10/01 10:32:53;;;;;;;6.07;5.47;;;;;;;20.88;83.41;95344.97;5114641;28;20848;-81
2022/10/01 10:35:24;;;;;;;10.70;6.40;;;;;;;20.87;81.56;95351.31;5114138;28;20450;-80
2022/10/01 10:37:53;;;;;;;7.70;6.63;;;;;;;20.75;79.83;95342.91;5078507;28;20439;-78
2022/10/01 10:40:24;;;;;;;9.07;6.70;;;;;;;20.56;78.40;95338.13;5113835;28;20451;-79
2022/10/01 10:42:53;;;;;;;11.80;7.80;;;;;;;20.64;80.73;95357.53;5113554;28;20446;-79
2022/10/01 10:45:30;;;;;;;8.23;6.20;;;;;;;20.65;80.42;95363.69;5077743;28;20929;-79
2022/10/01 10:47:58;;;;;;;8.30;5.77;;;;;;;20.76;81.21;95373.09;5094693;28;20430;-80
2022/10/01 10:50:33;;;;;;;13.70;10.03;;;;;;;20.74;83.00;95365.25;5113824;28;20461;-79
2022/10/01 10:53:11;;;;;;;14.73;8.83;;;;;;;20.48;84.94;95327.50;5114361;27;20437;-80
2022/10/01 10:55:38;;;;;;;13.97;9.00;;;;;;;20.45;84.24;95342.03;5113885;28;20504;-80
2022/10/01 10:58:12;;;;;;;13.60;9.37;;;;;;;20.45;85.46;95335.84;5113362;28;20443;-80
2022/10/01 11:00:49;;;;;;;16.87;9.00;;;;;;;20.49;85.57;95343.31;5113792;28;20442;-80
2022/10/01 11:03:18;;;;;;;12.37;8.60;;;;;;;20.52;86.36;95342.13;5113332;28;20438;-80
2022/10/01 11:05:45;;;;;;;18.13;8.70;;;;;;;20.51;87.13;95337.78;5113406;28;20442;-80
2022/10/01 11:08:18;;;;;;;13.43;9.93;;;;;;;20.47;87.69;95328.50;5113573;28;20439;-80
2022/10/01 11:10:58;;;;;;;15.67;10.80;;;;;;;20.31;88.86;95348.13;5113949;28;21157;-79
2022/10/01 11:13:50;;;;;;;17.93;10.57;;;;;;;20.15;91.37;95305.59;5112280;28;20952;-80
2022/10/01 11:16:36;;;;;;;18.47;10.20;;;;;;;20.18;90.88;95289.25;5112820;28;20471;-80
2022/10/01 11:19:23;;;;;;;12.57;10.07;;;;;;;20.12;93.49;95264.13;5113392;28;20888;-80
2022/10/01 11:22:02;;;;;;;11.13;9.80;;;;;;;19.80;93.83;95226.09;5113459;28;20478;-79
2022/10/01 11:24:59;;;;;;;10.23;7.53;;;;;;;19.68;90.67;95218.72;5112841;28;20446;-79
2022/10/01 11:27:35;;;;;;;12.77;10.50;;;;;;;19.79;93.74;95219.13;5113163;28;20444;-80
2022/10/01 11:30:08;;;;;;;17.67;10.37;;;;;;;19.88;94.22;95203.06;5113101;28;20957;-79
2022/10/01 11:32:40;;;;;;;14.87;10.70;;;;;;;19.87;93.44;95204.06;5113495;28;20475;-79
2022/10/01 11:35:43;;;;;;;10.93;7.30;;;;;;;19.85;91.62;95232.72;5113205;28;20442;-79
2022/10/01 11:38:36;;;;;;;14.00;8.17;;;;;;;19.95;92.54;95227.97;5049686;28;20451;-80
2022/10/01 11:41:17;;;;;;;9.63;8.57;;;;;;;20.05;92.58;95240.06;5049910;28;20486;-79